Time;durP1;ratioP1;P1;durP2;ratioP2;P2;SDS_P1;SDS_P2;PMS_P1;PMS_P2;Temp;Humidity;BMP_temperature;BMP_pressure;BME280_temperature;BME280_humidity;BME280_pressure;Samples;Min_cycle;Max_cycle;Signal;HPM_P1;HPM_P2
2022/08/08 00:01:42;;;;;;;6.78;2.80;;;;;;;18.81;52.23;102588.41;5148268;28;20429;-60
2022/08/08 00:04:24;;;;;;;9.63;2.80;;;;;;;18.79;52.31;102599.28;5147274;28;20865;-60
2022/08/08 00:07:08;;;;;;;7.40;3.03;;;;;;;18.75;52.38;102595.25;5149246;28;20408;-60
2022/08/08 00:09:53;;;;;;;6.17;2.63;;;;;;;18.64;52.52;102590.13;5149550;28;20760;-63
2022/08/08 00:12:30;;;;;;;7.90;3.40;;;;;;;18.64;52.60;102595.50;5150672;28;20491;-60
2022/08/08 00:15:12;;;;;;;9.38;3.13;;;;;;;18.62;52.72;102600.19;5151906;28;20518;-60
2022/08/08 00:17:53;;;;;;;4.82;3.13;;;;;;;18.59;52.77;102605.84;5150802;28;20828;-60
2022/08/08 00:20:35;;;;;;;4.20;2.70;;;;;;;18.56;52.84;102601.66;5142406;28;20510;-61
2022/08/08 00:23:15;;;;;;;7.82;3.17;;;;;;;18.54;53.04;102602.81;5140282;28;20421;-60
2022/08/08 00:25:52;;;;;;;8.27;3.15;;;;;;;18.52;53.06;102610.16;5150601;28;23042;-60
2022/08/08 00:28:30;;;;;;;6.00;3.20;;;;;;;18.47;53.18;102607.13;5146622;28;20853;-60
2022/08/08 00:31:08;;;;;;;7.30;3.83;;;;;;;18.47;53.26;102596.44;5147000;28;20413;-60
2022/08/08 00:33:52;;;;;;;6.75;3.38;;;;;;;18.44;53.29;102603.75;5149642;28;20859;-60
2022/08/08 00:36:29;;;;;;;6.43;3.72;;;;;;;18.40;53.45;102607.75;5150242;28;20912;-61
2022/08/08 00:39:10;;;;;;;6.22;3.13;;;;;;;18.40;53.49;102606.94;5146727;28;20519;-61
2022/08/08 00:42:21;;;;;;;8.73;3.65;;;;;;;18.37;53.58;102602.72;5141924;28;20422;-61
2022/08/08 00:45:42;;;;;;;8.13;3.60;;;;;;;18.34;53.62;102592.34;5137866;28;20995;-61
2022/08/08 00:48:54;;;;;;;9.53;4.20;;;;;;;18.31;53.81;102589.16;5137702;28;20429;-62
2022/08/08 00:52:13;;;;;;;7.60;3.83;;;;;;;18.28;53.83;102581.44;5147823;28;20809;-61
2022/08/08 00:55:40;;;;;;;6.70;4.00;;;;;;;18.22;53.96;102577.56;5167709;28;20419;-61
2022/08/08 00:59:42;;;;;;;11.40;3.33;;;;;;;18.17;54.05;102566.47;5108569;28;20426;-61
2022/08/08 01:02:53;;;;;;;9.30;3.15;;;;;;;18.12;54.32;102566.13;5109709;28;20433;-61
2022/08/08 01:06:02;;;;;;;6.15;3.15;;;;;;;18.08;54.29;102570.09;5118354;28;20802;-61
2022/08/08 01:09:08;;;;;;;7.60;3.67;;;;;;;18.09;54.31;102577.16;5141371;28;20701;-60
2022/08/08 01:12:35;;;;;;;7.18;3.40;;;;;;;18.07;54.41;102581.81;5137640;28;20762;-61
2022/08/08 01:16:02;;;;;;;7.68;3.22;;;;;;;18.05;54.64;102578.44;5152575;28;20967;-61
2022/08/08 01:19:23;;;;;;;14.15;4.18;;;;;;;18.01;54.70;102574.41;5145683;28;20423;-60
2022/08/08 01:22:30;;;;;;;7.53;3.70;;;;;;;17.98;54.81;102571.03;5112101;28;20743;-62
2022/08/08 01:26:16;;;;;;;10.15;3.65;;;;;;;17.95;54.90;102579.38;5127087;28;20933;-60
2022/08/08 01:29:30;;;;;;;7.43;3.08;;;;;;;17.94;54.93;102580.38;5030542;28;20428;-61
2022/08/08 01:33:23;;;;;;;9.02;3.28;;;;;;;17.94;55.08;102584.88;5146630;28;20858;-60
2022/08/08 01:37:09;;;;;;;8.85;3.63;;;;;;;17.89;55.25;102577.31;5148595;28;20938;-61
2022/08/08 01:40:04;;;;;;;9.57;4.17;;;;;;;17.86;55.43;102595.50;5165949;28;20460;-61
2022/08/08 01:42:45;;;;;;;9.27;4.07;;;;;;;17.85;55.45;102585.81;5147514;28;20488;-61
2022/08/08 01:49:00;;;;;;;8.50;4.22;;;;;;;17.79;55.41;102583.75;5128858;28;20789;-61
2022/08/08 01:51:58;;;;;;;7.25;3.30;;;;;;;17.78;55.65;102577.59;5139600;28;20512;-60
2022/08/08 01:54:58;;;;;;;9.10;3.80;;;;;;;17.78;55.63;102584.78;5146751;28;20726;-59
2022/08/08 01:57:42;;;;;;;9.13;3.55;;;;;;;17.74;55.72;102579.69;5123501;28;20727;-60
2022/08/08 02:00:19;;;;;;;9.02;3.63;;;;;;;17.73;55.86;102582.50;5129220;28;20869;-61
2022/08/08 02:03:19;;;;;;;6.43;3.70;;;;;;;17.69;55.84;102589.16;5121280;28;20491;-60
2022/08/08 02:06:07;;;;;;;9.27;4.47;;;;;;;17.68;56.05;102595.47;5123858;28;20418;-60
2022/08/08 02:08:52;;;;;;;8.65;4.13;;;;;;;17.65;56.18;102590.44;5140450;28;20929;-60
2022/08/08 02:11:31;;;;;;;7.47;3.80;;;;;;;17.63;56.15;102587.09;5148742;28;20854;-60
2022/08/08 02:14:08;;;;;;;5.90;3.40;;;;;;;17.52;56.17;102572.13;5150199;28;20493;-61
2022/08/08 02:16:58;;;;;;;10.80;4.22;;;;;;;17.61;56.19;102594.44;5153349;28;20415;-59
2022/08/08 02:19:41;;;;;;;6.53;4.10;;;;;;;17.58;56.38;102594.75;5149892;28;20733;-57
2022/08/08 02:25:21;;;;;;;6.32;3.55;;;;;;;17.49;56.48;102589.31;5152131;28;20416;-62
2022/08/08 02:28:00;;;;;;;9.00;4.22;;;;;;;17.49;56.55;102583.97;5152169;28;20500;-60
2022/08/08 02:30:43;;;;;;;8.43;3.35;;;;;;;17.46;56.65;102589.59;5146747;28;20749;-62
2022/08/08 02:33:40;;;;;;;9.13;4.18;;;;;;;17.46;56.63;102589.59;5148788;28;20436;-62
2022/08/08 02:36:38;;;;;;;8.23;3.78;;;;;;;17.43;56.83;102587.25;5148147;28;21017;-61
2022/08/08 02:39:38;;;;;;;7.27;4.00;;;;;;;17.41;56.97;102594.59;5117968;28;20507;-62
2022/08/08 02:42:52;;;;;;;6.50;3.63;;;;;;;17.39;56.99;102591.22;5127833;28;20487;-61
2022/08/08 02:46:10;;;;;;;8.88;3.65;;;;;;;17.37;57.24;102598.53;5168289;28;20414;-61
2022/08/08 02:49:24;;;;;;;9.57;3.60;;;;;;;17.34;57.12;102596.16;5105970;28;20416;-61
2022/08/08 02:52:25;;;;;;;8.77;3.97;;;;;;;17.34;57.26;102601.50;5118952;28;20819;-61
2022/08/08 02:55:30;;;;;;;11.95;5.05;;;;;;;17.32;57.31;102600.84;5123458;28;20402;-62
2022/08/08 02:59:07;;;;;;;9.40;5.13;;;;;;;17.29;57.32;102601.97;5120939;28;20818;-60
2022/08/08 03:02:17;;;;;;;9.60;4.60;;;;;;;17.27;57.39;102605.78;5120957;28;20412;-61
2022/08/08 03:05:42;;;;;;;10.52;4.70;;;;;;;17.24;57.61;102604.25;5142152;28;20877;-62
2022/08/08 03:09:23;;;;;;;11.85;5.20;;;;;;;17.20;57.62;102604.72;5068776;28;20923;-62
2022/08/08 03:13:00;;;;;;;8.93;4.95;;;;;;;17.18;57.62;102614.69;5134644;28;20408;-60
2022/08/08 03:16:18;;;;;;;9.23;4.60;;;;;;;17.16;57.75;102622.03;5137650;28;20409;-61
2022/08/08 03:19:18;;;;;;;10.25;5.00;;;;;;;17.14;57.65;102616.00;5150029;28;20432;-60
2022/08/08 03:21:50;;;;;;;11.73;5.10;;;;;;;17.14;57.78;102618.66;5147275;28;20881;-61
2022/08/08 03:24:24;;;;;;;8.83;4.57;;;;;;;17.12;57.91;102616.13;5151823;28;20452;-60
2022/08/08 03:27:17;;;;;;;7.32;4.53;;;;;;;17.12;58.04;102616.13;5151021;28;20789;-61
2022/08/08 03:29:55;;;;;;;8.07;4.38;;;;;;;17.11;58.13;102624.31;5150960;28;20400;-61
2022/08/08 03:35:18;;;;;;;8.32;4.60;;;;;;;17.09;58.17;102624.44;5146144;28;20388;-62
2022/08/08 03:37:51;;;;;;;12.13;5.85;;;;;;;17.10;58.12;102626.13;5143612;28;20436;-62
2022/08/08 03:40:25;;;;;;;8.90;4.85;;;;;;;17.08;58.24;102620.09;5150892;28;20493;-62
2022/08/08 03:42:58;;;;;;;8.93;5.70;;;;;;;16.79;58.42;102574.88;5171496;28;20816;-61
2022/08/08 03:45:31;;;;;;;12.95;5.38;;;;;;;17.07;58.38;102633.59;5169140;28;20815;-61
2022/08/08 03:48:06;;;;;;;11.48;6.03;;;;;;;17.04;58.48;102635.56;5157442;28;20726;-62
2022/08/08 03:50:46;;;;;;;14.30;5.82;;;;;;;17.02;58.57;102632.19;5150837;28;20503;-62
2022/08/08 03:53:20;;;;;;;7.78;4.68;;;;;;;17.01;58.65;102627.84;5136913;28;20782;-61
2022/08/08 03:55:54;;;;;;;7.33;4.30;;;;;;;16.99;58.66;102632.50;5146424;28;20494;-62
2022/08/08 03:58:26;;;;;;;12.57;5.40;;;;;;;16.98;58.85;102636.16;5142762;28;20418;-61
2022/08/08 04:00:59;;;;;;;13.35;5.55;;;;;;;16.96;58.77;102632.78;5135154;28;20431;-60
2022/08/08 04:03:35;;;;;;;8.45;4.90;;;;;;;16.93;58.92;102633.09;5150415;28;20503;-62
2022/08/08 04:06:08;;;;;;;10.63;4.87;;;;;;;16.94;58.99;102656.13;5151065;28;20423;-62
2022/08/08 04:08:41;;;;;;;13.40;5.78;;;;;;;16.87;59.12;102633.69;5149744;28;20432;-62
2022/08/08 04:11:15;;;;;;;12.38;5.68;;;;;;;16.92;59.07;102642.09;5150737;28;20749;-62
2022/08/08 04:13:48;;;;;;;10.07;5.35;;;;;;;16.88;59.16;102640.72;5150769;28;20733;-60
2022/08/08 04:16:20;;;;;;;10.60;6.15;;;;;;;16.89;59.23;102647.72;5114931;28;20937;-61
2022/08/08 04:18:53;;;;;;;12.30;5.85;;;;;;;16.89;59.14;102647.72;5121228;28;20820;-61
2022/08/08 04:21:26;;;;;;;10.65;4.93;;;;;;;16.91;59.18;102651.09;5126139;28;20737;-62
2022/08/08 04:23:58;;;;;;;12.05;5.85;;;;;;;16.94;59.19;102657.94;5123807;28;20422;-60
2022/08/08 04:26:32;;;;;;;8.40;4.80;;;;;;;16.95;59.23;102657.81;5130001;28;20513;-61
2022/08/08 04:29:05;;;;;;;9.77;5.20;;;;;;;16.98;59.28;102652.19;5125474;28;20880;-61
2022/08/08 04:31:37;;;;;;;7.22;4.95;;;;;;;17.00;59.39;102652.88;5144933;28;20805;-61
2022/08/08 04:34:10;;;;;;;12.23;5.65;;;;;;;17.05;59.32;102655.94;5149822;28;20421;-61
2022/08/08 04:36:42;;;;;;;14.63;5.25;;;;;;;17.09;59.33;102653.78;5152040;28;20911;-61
2022/08/08 04:39:15;;;;;;;9.80;5.20;;;;;;;17.16;59.33;102648.72;5149284;28;20425;-60
2022/08/08 04:41:48;;;;;;;11.95;5.85;;;;;;;17.21;59.29;102654.44;5149677;28;20753;-60
2022/08/08 04:44:21;;;;;;;13.45;5.57;;;;;;;17.26;59.43;102654.84;5125326;28;20415;-60
2022/08/08 04:46:53;;;;;;;12.52;5.55;;;;;;;17.20;59.34;102639.44;5130221;28;20846;-60
2022/08/08 04:49:26;;;;;;;8.70;5.18;;;;;;;17.36;59.35;102655.63;5149697;28;20996;-60
2022/08/08 04:51:58;;;;;;;12.77;5.32;;;;;;;17.41;59.41;102658.69;5148330;28;20423;-45
2022/08/08 04:54:31;;;;;;;14.15;4.97;;;;;;;17.50;59.29;102659.63;5149156;28;20409;-59
2022/08/08 04:57:05;;;;;;;10.23;4.70;;;;;;;17.55;59.34;102659.16;5144901;28;21210;-60
2022/08/08 04:59:38;;;;;;;9.43;5.30;;;;;;;17.61;59.28;102658.56;5149835;28;20845;-59
2022/08/08 05:02:11;;;;;;;12.80;4.85;;;;;;;17.68;59.21;102654.28;5149579;28;20411;-61
2022/08/08 05:04:43;;;;;;;12.15;5.68;;;;;;;17.76;59.28;102673.06;5148773;28;20889;-60
2022/08/08 05:07:16;;;;;;;9.52;5.03;;;;;;;17.82;59.21;102656.44;5150240;28;20824;-60
2022/08/08 05:09:49;;;;;;;8.35;4.47;;;;;;;17.88;59.12;102658.50;5145779;28;20402;-59
2022/08/08 05:12:22;;;;;;;10.97;4.70;;;;;;;17.94;59.20;102660.56;5150157;28;20496;-60
2022/08/08 05:14:55;;;;;;;9.25;4.22;;;;;;;18.03;59.16;102666.84;5148574;28;20754;-60
2022/08/08 05:17:27;;;;;;;13.88;4.75;;;;;;;18.10;59.17;102665.22;5150039;28;20884;-60
2022/08/08 05:19:59;;;;;;;10.75;4.22;;;;;;;18.19;59.03;102668.78;5147207;28;20423;-46
2022/08/08 05:22:32;;;;;;;8.60;4.82;;;;;;;18.28;58.98;102657.16;5149420;28;20435;-61
2022/08/08 05:25:05;;;;;;;10.35;4.35;;;;;;;18.38;59.13;102663.25;5148563;28;20416;-60
2022/08/08 05:27:39;;;;;;;9.45;3.95;;;;;;;18.41;58.96;102657.56;5138173;28;20417;-60
2022/08/08 05:30:12;;;;;;;5.97;3.75;;;;;;;18.61;58.90;102668.06;5148957;28;20879;-64
2022/08/08 05:32:44;;;;;;;9.45;4.22;;;;;;;18.76;58.76;102665.69;5152408;28;20423;-61
2022/08/08 05:35:21;;;;;;;11.17;4.63;;;;;;;18.89;58.68;102661.56;5169449;28;20856;-61
2022/08/08 05:37:59;;;;;;;8.70;3.87;;;;;;;19.08;58.49;102671.19;5153517;28;20417;-61
2022/08/08 05:40:34;;;;;;;10.40;4.00;;;;;;;19.22;58.40;102669.72;5135981;28;20733;-60
2022/08/08 05:43:10;;;;;;;10.32;3.85;;;;;;;19.33;58.24;102664.06;5149867;28;20862;-60
2022/08/08 05:45:42;;;;;;;14.75;4.53;;;;;;;19.42;57.90;102664.06;5148910;28;20447;-60
2022/08/08 05:48:16;;;;;;;7.25;3.40;;;;;;;19.55;57.60;102661.78;5148594;28;20951;-61
2022/08/08 05:50:49;;;;;;;11.40;4.00;;;;;;;20.32;56.98;102661.50;5147474;28;23307;-60
2022/08/08 05:53:24;;;;;;;8.40;4.25;;;;;;;20.70;56.28;102660.78;5148915;28;20913;-60
2022/08/08 05:56:00;;;;;;;11.43;4.07;;;;;;;20.89;56.08;102661.38;5136336;28;20422;-61
2022/08/08 05:58:34;;;;;;;10.05;3.72;;;;;;;21.04;56.00;102670.38;5139497;28;20444;-60
2022/08/08 06:01:09;;;;;;;9.07;3.85;;;;;;;21.21;55.71;102670.28;5141637;28;20750;-60
2022/08/08 06:03:42;;;;;;;9.38;3.72;;;;;;;22.32;54.41;102673.41;5136485;28;20433;-61
2022/08/08 06:06:16;;;;;;;9.63;3.22;;;;;;;23.91;52.61;102671.91;5148969;28;20916;-60
2022/08/08 06:08:52;;;;;;;7.75;3.05;;;;;;;25.70;50.51;102674.72;5140645;28;22887;-61
2022/08/08 06:11:26;;;;;;;5.68;2.40;;;;;;;27.13;48.59;102672.28;5144672;28;20774;-61
2022/08/08 06:14:01;;;;;;;5.00;2.03;;;;;;;28.00;47.39;102667.16;5144601;28;20528;-60
2022/08/08 06:16:36;;;;;;;5.55;1.80;;;;;;;29.15;45.68;102674.72;5147306;28;20417;-61
2022/08/08 06:19:10;;;;;;;7.00;2.23;;;;;;;30.33;44.12;102675.84;5148573;28;20429;-60
2022/08/08 06:21:47;;;;;;;7.90;2.20;;;;;;;31.23;42.55;102674.44;5149007;28;20417;-61
2022/08/08 06:24:20;;;;;;;5.25;1.75;;;;;;;31.58;41.77;102667.97;5148476;28;20746;-60
2022/08/08 06:27:01;;;;;;;7.43;1.70;;;;;;;31.58;41.35;102676.19;5148755;28;20431;-61
2022/08/08 06:29:39;;;;;;;8.85;2.22;;;;;;;31.24;41.37;102687.00;5158022;28;20803;-59
2022/08/08 06:32:16;;;;;;;3.83;1.55;;;;;;;31.42;41.01;102683.28;5168024;28;20740;-60
2022/08/08 06:34:52;;;;;;;4.93;1.13;;;;;;;31.25;40.86;102682.41;5163402;28;20720;-59
2022/08/08 06:37:30;;;;;;;5.13;1.35;;;;;;;30.65;41.09;102680.06;5144538;28;20734;-60
2022/08/08 06:40:07;;;;;;;4.25;1.20;;;;;;;30.01;41.52;102688.09;5147065;28;20850;-59
2022/08/08 06:42:40;;;;;;;3.35;1.55;;;;;;;29.49;41.84;102696.03;5144464;28;20429;-60
2022/08/08 06:45:14;;;;;;;7.45;1.70;;;;;;;29.26;41.82;102699.50;5135960;28;20857;-59
2022/08/08 06:47:47;;;;;;;5.13;1.95;;;;;;;28.93;41.92;102692.56;5138070;28;20819;-60
2022/08/08 06:50:19;;;;;;;6.65;1.73;;;;;;;28.65;41.90;102693.13;5143105;28;20834;-59
2022/08/08 06:52:52;;;;;;;5.63;1.52;;;;;;;28.31;42.10;102698.03;5147917;28;20422;-59
2022/08/08 06:55:25;;;;;;;8.98;1.98;;;;;;;27.95;42.38;102691.44;5147721;28;20882;-59
2022/08/08 06:57:58;;;;;;;4.50;1.98;;;;;;;27.52;42.42;102678.53;5147939;28;20426;-59
2022/08/08 07:00:38;;;;;;;7.97;3.08;;;;;;;27.31;42.71;102697.88;5146553;28;20767;-58
2022/08/08 07:03:16;;;;;;;7.38;3.20;;;;;;;26.93;42.97;102690.50;5152161;28;20408;-59
2022/08/08 07:05:52;;;;;;;10.10;3.95;;;;;;;26.73;42.87;102697.84;5152500;28;20424;-59
2022/08/08 07:08:33;;;;;;;8.32;4.43;;;;;;;26.43;43.21;102701.03;5151794;28;20733;-59
2022/08/08 07:11:07;;;;;;;11.23;4.47;;;;;;;26.07;43.64;102702.28;5141760;28;20408;-58
2022/08/08 07:13:45;;;;;;;8.25;4.05;;;;;;;25.84;43.86;102710.00;5153391;28;20446;-58
2022/08/08 07:16:24;;;;;;;11.13;4.77;;;;;;;25.58;43.96;102703.47;5146014;28;20521;-59
2022/08/08 07:19:10;;;;;;;13.50;4.97;;;;;;;25.34;44.37;102704.03;5146479;28;20870;-58
2022/08/08 07:21:54;;;;;;;7.78;3.83;;;;;;;25.06;44.57;102707.63;5151364;28;20419;-59
2022/08/08 07:24:30;;;;;;;9.15;4.25;;;;;;;24.85;44.74;102712.06;5148586;28;20904;-59
2022/08/08 07:27:04;;;;;;;9.15;3.85;;;;;;;24.77;44.82;102704.13;5169669;28;20861;-59
2022/08/08 07:29:37;;;;;;;9.93;3.70;;;;;;;25.66;44.25;102714.06;5168159;28;20911;-59
2022/08/08 07:32:12;;;;;;;9.10;3.00;;;;;;;26.27;43.54;102715.84;5159340;28;20428;-59
2022/08/08 07:34:45;;;;;;;8.90;3.53;;;;;;;26.25;43.56;102723.31;5151182;28;20475;-59
2022/08/08 07:37:21;;;;;;;6.78;3.00;;;;;;;26.20;43.38;102731.22;5137288;28;20810;-58
2022/08/08 07:39:56;;;;;;;6.73;2.37;;;;;;;26.00;43.29;102698.75;5125868;28;20957;-58
2022/08/08 07:42:30;;;;;;;5.50;2.93;;;;;;;26.12;43.28;102724.16;5118625;28;20600;-58
2022/08/08 07:45:02;;;;;;;7.70;2.63;;;;;;;26.14;43.37;102724.81;5128819;28;20773;-57
2022/08/08 07:47:36;;;;;;;8.18;2.90;;;;;;;26.33;43.14;102725.00;5142737;28;20891;-58
2022/08/08 07:50:09;;;;;;;8.52;2.42;;;;;;;26.48;42.86;102728.34;5146940;28;20449;-58
2022/08/08 07:52:52;;;;;;;6.83;2.30;;;;;;;27.08;42.51;102726.31;5141099;28;20468;-58
2022/08/08 07:55:27;;;;;;;7.83;1.60;;;;;;;28.21;41.44;102727.56;5139108;28;20420;-58
2022/08/08 07:58:16;;;;;;;6.40;1.63;;;;;;;29.33;40.40;102722.84;5140656;28;20419;-53
2022/08/08 08:00:52;;;;;;;3.90;1.80;;;;;;;29.67;39.83;102723.25;5145053;28;20436;-58
2022/08/08 08:03:32;;;;;;;4.47;1.40;;;;;;;30.15;39.71;102727.69;5150234;28;20787;-58
2022/08/08 08:06:06;;;;;;;5.80;1.52;;;;;;;30.74;38.87;102727.72;5148889;28;20484;-58
2022/08/08 08:08:41;;;;;;;6.47;1.50;;;;;;;30.96;38.77;102722.47;5150250;28;20654;-58
2022/08/08 08:11:17;;;;;;;6.97;1.77;;;;;;;31.12;38.87;102729.88;5148484;28;20778;-58
2022/08/08 08:13:59;;;;;;;4.22;1.45;;;;;;;31.32;38.52;102734.13;5152242;28;20411;-60
2022/08/08 08:16:38;;;;;;;4.45;1.17;;;;;;;31.34;38.65;102745.63;5147771;28;20741;-57
2022/08/08 08:19:13;;;;;;;5.72;1.38;;;;;;;31.65;38.53;102742.41;5150215;28;20745;-59
2022/08/08 08:21:48;;;;;;;6.68;1.20;;;;;;;31.60;38.52;102739.59;5153345;28;20897;-58
2022/08/08 08:24:20;;;;;;;3.75;1.10;;;;;;;31.87;38.62;102738.97;5165856;28;20490;-57
2022/08/08 08:26:52;;;;;;;5.70;1.30;;;;;;;32.18;38.10;102744.94;5170101;28;20755;-57
2022/08/08 08:29:26;;;;;;;3.83;0.93;;;;;;;32.27;38.01;102744.28;5150530;28;20432;-55
2022/08/08 08:31:59;;;;;;;4.55;1.40;;;;;;;32.38;37.72;102737.88;5149010;28;20416;-57
2022/08/08 08:34:33;;;;;;;2.60;0.90;;;;;;;32.31;37.72;102745.44;5148517;28;20903;-57
2022/08/08 08:37:06;;;;;;;3.97;1.33;;;;;;;32.20;38.13;102742.78;5136312;28;20973;-58
2022/08/08 08:39:38;;;;;;;6.32;1.40;;;;;;;31.74;38.30;102745.56;5128537;28;20899;-56
2022/08/08 08:42:11;;;;;;;4.05;1.30;;;;;;;31.42;38.68;102743.34;5133545;28;20421;-56
2022/08/08 08:44:44;;;;;;;4.50;1.10;;;;;;;31.46;38.35;102743.69;5150221;28;20413;-55
2022/08/08 08:47:20;;;;;;;3.33;1.00;;;;;;;31.65;38.10;102747.03;5149672;28;20424;-55
2022/08/08 08:49:54;;;;;;;5.20;1.30;;;;;;;31.83;37.95;102745.97;5136611;28;20490;-55
2022/08/08 08:52:26;;;;;;;4.10;1.77;;;;;;;31.62;37.67;102726.53;5145997;28;20881;-54
2022/08/08 08:55:01;;;;;;;4.40;1.15;;;;;;;30.86;38.04;102755.00;5133746;28;20751;-56
2022/08/08 08:57:34;;;;;;;4.80;1.25;;;;;;;29.92;38.73;102757.63;5127838;28;20430;-55
2022/08/08 09:00:09;;;;;;;6.30;1.33;;;;;;;28.89;39.47;102751.19;5118013;28;20748;-54
2022/08/08 09:02:43;;;;;;;4.18;1.38;;;;;;;28.20;39.84;102763.94;5124114;28;20858;-55
2022/08/08 09:05:18;;;;;;;4.90;1.58;;;;;;;27.76;39.83;102766.50;5116163;28;20729;-58
2022/08/08 09:07:52;;;;;;;3.30;1.40;;;;;;;27.46;39.94;102774.41;5122785;28;20455;-56
2022/08/08 09:10:28;;;;;;;4.60;1.35;;;;;;;27.44;39.66;102768.38;5128738;28;20432;-54
2022/08/08 09:13:02;;;;;;;4.55;1.55;;;;;;;27.64;39.24;102776.41;5139052;28;20425;-55
2022/08/08 09:15:34;;;;;;;6.20;1.37;;;;;;;27.63;39.19;102760.34;5149333;28;20494;-59
2022/08/08 09:18:08;;;;;;;4.70;0.90;;;;;;;27.70;39.05;102753.81;5159159;28;20407;-53
2022/08/08 09:20:42;;;;;;;3.45;0.73;;;;;;;27.81;38.78;102760.44;5170681;28;20732;-56
2022/08/08 09:23:15;;;;;;;3.72;1.40;;;;;;;28.17;38.35;102762.50;5167043;28;20417;-53
2022/08/08 09:25:54;;;;;;;3.70;1.23;;;;;;;28.63;37.94;102766.72;5150019;28;20435;-51
2022/08/08 09:28:29;;;;;;;2.53;0.80;;;;;;;29.00;37.32;102768.66;5149774;28;20878;-52
2022/08/08 09:31:08;;;;;;;3.73;1.07;;;;;;;29.07;37.27;102755.81;5146132;28;20435;-55
2022/08/08 09:33:44;;;;;;;1.55;0.90;;;;;;;28.96;37.31;102771.00;5149396;28;20448;-54
2022/08/08 09:36:22;;;;;;;5.40;1.10;;;;;;;28.82;37.33;102756.69;5145968;28;20902;-54
2022/08/08 09:38:59;;;;;;;1.73;0.85;;;;;;;28.66;37.53;102765.44;5142221;28;20877;-56
2022/08/08 09:41:38;;;;;;;2.05;0.95;;;;;;;28.67;37.20;102756.22;5147387;28;20741;-54
2022/08/08 09:44:19;;;;;;;2.60;0.70;;;;;;;28.76;37.16;102768.47;5148970;28;20864;-55
2022/08/08 09:46:52;;;;;;;3.10;0.88;;;;;;;28.66;37.01;102757.28;5144934;28;20810;-51
2022/08/08 09:49:24;;;;;;;2.40;0.85;;;;;;;28.61;36.80;102755.22;5145708;28;20702;-51
2022/08/08 09:51:59;;;;;;;7.90;1.60;;;;;;;28.73;36.50;102758.03;5133154;28;20819;-55
2022/08/08 09:54:40;;;;;;;3.30;1.02;;;;;;;28.91;36.25;102757.22;5146681;28;20500;-54
2022/08/08 09:57:18;;;;;;;4.05;1.35;;;;;;;28.93;36.05;102764.13;5149263;28;20782;-54
2022/08/08 09:59:51;;;;;;;2.40;0.93;;;;;;;28.55;36.41;102761.56;5148811;28;20723;-53
2022/08/08 10:02:27;;;;;;;4.88;1.27;;;;;;;28.20;36.58;102766.66;5148228;28;20853;-55
2022/08/08 10:05:05;;;;;;;3.78;1.08;;;;;;;27.74;36.87;102754.22;5147131;28;20436;-53
2022/08/08 10:07:46;;;;;;;2.10;0.98;;;;;;;27.76;36.82;102768.41;5148724;28;20431;-54
2022/08/08 10:10:25;;;;;;;4.30;1.33;;;;;;;27.26;37.19;102779.09;5148986;28;20781;-52
2022/08/08 10:12:58;;;;;;;3.53;1.20;;;;;;;26.93;37.66;102785.41;5148656;28;20897;-55
2022/08/08 10:15:38;;;;;;;4.90;1.07;;;;;;;26.70;37.79;102779.59;5151981;28;20427;-53
2022/08/08 10:18:10;;;;;;;2.85;1.17;;;;;;;26.47;38.02;102774.59;5148364;28;20416;-55
2022/08/08 10:20:47;;;;;;;3.78;1.25;;;;;;;26.59;37.74;102773.78;5148295;28;20742;-54
2022/08/08 10:23:38;;;;;;;3.50;1.35;;;;;;;26.80;37.69;102763.75;5148581;28;20460;-54
2022/08/08 10:26:16;;;;;;;4.77;1.67;;;;;;;27.26;37.20;102768.25;5148610;28;20785;-54
2022/08/08 10:28:56;;;;;;;5.75;1.75;;;;;;;27.62;36.71;102764.91;5141118;28;20751;-55
2022/08/08 10:34:22;;;;;;;4.60;1.38;;;;;;;27.46;37.01;102768.97;5144080;28;20754;-52
2022/08/08 10:36:56;;;;;;;3.03;1.13;;;;;;;27.27;37.24;102769.88;5151341;28;20404;-53
2022/08/08 10:39:31;;;;;;;5.45;1.55;;;;;;;27.13;37.41;102758.25;5150200;28;20718;-54
2022/08/08 10:42:05;;;;;;;5.30;1.60;;;;;;;27.29;36.98;102774.06;5141716;28;20500;-53
2022/08/08 10:44:40;;;;;;;5.60;1.42;;;;;;;27.23;37.11;102774.91;5141536;28;20459;-53
2022/08/08 10:47:13;;;;;;;3.00;1.67;;;;;;;27.17;37.04;102773.06;5153079;28;20408;-53
2022/08/08 10:49:51;;;;;;;5.45;1.52;;;;;;;27.23;36.91;102774.91;5151879;28;20428;-54
2022/08/08 10:52:26;;;;;;;4.43;1.55;;;;;;;27.27;36.86;102769.88;5152740;28;20419;-54
2022/08/08 10:55:02;;;;;;;3.65;1.38;;;;;;;27.13;36.98;102769.91;5151956;28;20952;-56
2022/08/08 10:57:43;;;;;;;3.67;1.55;;;;;;;27.11;37.19;102777.44;5130139;28;20426;-56
2022/08/08 11:00:23;;;;;;;5.35;1.35;;;;;;;27.05;37.32;102769.31;5125345;28;20969;-55
2022/08/08 11:02:58;;;;;;;3.35;1.63;;;;;;;26.98;37.46;102777.47;5130617;28;20910;-55
2022/08/08 11:05:31;;;;;;;4.32;1.38;;;;;;;26.76;37.85;102774.19;5146333;28;20683;-54
2022/08/08 11:08:03;;;;;;;3.58;1.20;;;;;;;26.51;37.93;102771.28;5152850;28;20431;-53
2022/08/08 11:10:37;;;;;;;3.83;1.45;;;;;;;26.31;38.35;102770.41;5161626;28;20443;-54
2022/08/08 11:13:09;;;;;;;4.10;1.52;;;;;;;25.96;38.67;102776.84;5168211;28;20430;-56
2022/08/08 11:15:45;;;;;;;1.83;1.05;;;;;;;25.59;39.15;102764.66;5153095;28;20429;-55
2022/08/08 11:18:18;;;;;;;4.23;1.70;;;;;;;25.56;39.15;102766.94;5150800;28;20416;-57
2022/08/08 11:20:52;;;;;;;3.47;1.38;;;;;;;25.46;39.31;102773.56;5151831;28;20424;-55
2022/08/08 11:23:25;;;;;;;5.13;1.60;;;;;;;25.27;39.73;102780.56;5147969;28;20499;-56
2022/08/08 11:26:00;;;;;;;3.50;1.20;;;;;;;25.34;39.43;102772.47;5147529;28;20858;-54
2022/08/08 11:28:36;;;;;;;5.00;1.38;;;;;;;25.48;39.58;102773.34;5148432;28;20862;-57
2022/08/08 11:31:10;;;;;;;7.10;1.90;;;;;;;25.43;39.44;102773.13;5151547;28;20424;-55
2022/08/08 11:33:51;;;;;;;3.80;1.58;;;;;;;25.35;39.62;102774.13;5150385;28;20431;-57
2022/08/08 11:36:23;;;;;;;5.35;1.50;;;;;;;25.36;39.75;102777.66;5143948;28;20487;-57
2022/08/08 11:38:57;;;;;;;6.20;1.95;;;;;;;25.20;39.92;102763.44;5123222;28;20428;-55
2022/08/08 11:41:31;;;;;;;4.53;1.58;;;;;;;25.13;40.25;102776.09;5123690;28;20515;-56
2022/08/08 11:44:04;;;;;;;3.47;1.63;;;;;;;24.98;40.50;102776.19;5124294;28;20426;-55
2022/08/08 11:46:36;;;;;;;4.95;1.58;;;;;;;24.89;40.74;102771.13;5151366;28;20420;-54
2022/08/08 11:49:11;;;;;;;5.82;1.60;;;;;;;24.76;40.94;102772.72;5147627;28;20439;-54
2022/08/08 11:51:44;;;;;;;3.17;1.48;;;;;;;24.69;41.22;102777.25;5144963;28;20428;-55
2022/08/08 11:54:16;;;;;;;6.22;1.60;;;;;;;24.62;41.27;102773.66;5143737;28;20536;-55
2022/08/08 11:56:50;;;;;;;3.22;1.60;;;;;;;24.59;41.33;102765.97;5145331;28;20506;-56
2022/08/08 11:59:33;;;;;;;4.75;1.30;;;;;;;24.84;41.12;102764.47;5150560;28;20420;-56
2022/08/08 12:02:07;;;;;;;4.35;1.45;;;;;;;24.99;40.98;102741.88;5148251;28;20424;-56
2022/08/08 12:04:39;;;;;;;4.30;1.20;;;;;;;25.31;40.78;102764.75;5143078;28;20897;-54
2022/08/08 12:07:12;;;;;;;3.05;1.15;;;;;;;25.62;40.49;102764.25;5158121;28;20448;-55
2022/08/08 12:09:44;;;;;;;3.38;1.40;;;;;;;25.90;40.27;102757.88;5165045;28;20421;-56
2022/08/08 12:12:25;;;;;;;5.57;1.67;;;;;;;26.17;39.91;102764.19;5168128;28;20791;-55
2022/08/08 12:15:01;;;;;;;2.50;1.25;;;;;;;26.37;39.67;102764.16;5150669;28;20778;-55
2022/08/08 12:17:35;;;;;;;2.63;1.13;;;;;;;26.61;39.42;102755.44;5144800;28;20412;-56
2022/08/08 12:20:09;;;;;;;3.13;1.17;;;;;;;26.91;39.02;102757.66;5142016;28;20521;-53
2022/08/08 12:22:50;;;;;;;3.85;1.10;;;;;;;27.05;39.08;102751.16;5141623;28;20513;-51
2022/08/08 12:25:25;;;;;;;4.15;1.15;;;;;;;27.11;39.10;102755.72;5130061;28;20918;-55
2022/08/08 12:28:11;;;;;;;2.42;1.02;;;;;;;27.18;38.88;102749.47;5150004;28;20870;-51
2022/08/08 12:30:45;;;;;;;3.65;1.00;;;;;;;27.10;38.87;102754.06;5139282;28;20424;-55
2022/08/08 12:33:20;;;;;;;2.95;1.15;;;;;;;27.15;38.91;102749.91;5150396;28;20413;-54
2022/08/08 12:35:52;;;;;;;2.13;1.47;;;;;;;26.94;38.88;102727.41;5150369;28;20408;-55
2022/08/08 12:38:25;;;;;;;3.05;1.27;;;;;;;26.96;38.92;102727.22;5119206;28;20904;-53
2022/08/08 12:40:57;;;;;;;3.22;1.40;;;;;;;26.99;39.09;102762.84;5129240;28;20434;-53